sensor_id;sensor_type;location;lat;lon;timestamp;temperature;humidity
19947;DHT22;10135;50.702;7.276;2023-08-07T05:00:31;16.20;74.40
19947;DHT22;10135;50.702;7.276;2023-08-07T05:02:31;16.20;74.30
19947;DHT22;10135;50.702;7.276;2023-08-07T05:04:32;16.20;74.30
19947;DHT22;10135;50.702;7.276;2023-08-07T05:06:32;16.20;74.40
19947;DHT22;10135;50.702;7.276;2023-08-07T05:08:33;16.20;74.30
19947;DHT22;10135;50.702;7.276;2023-08-07T05:10:34;16.20;74.30
19947;DHT22;10135;50.702;7.276;2023-08-07T05:12:34;16.20;74.30
19947;DHT22;10135;50.702;7.276;2023-08-07T05:14:35;16.20;74.30
19947;DHT22;10135;50.702;7.276;2023-08-07T05:16:36;16.20;74.30
19947;DHT22;10135;50.702;7.276;2023-08-07T05:18:36;16.20;74.40
19947;DHT22;10135;50.702;7.276;2023-08-07T05:20:37;16.20;74.40
19947;DHT22;10135;50.702;7.276;2023-08-07T05:22:37;16.20;74.40
19947;DHT22;10135;50.702;7.276;2023-08-07T05:24:38;16.20;74.50
19947;DHT22;10135;50.702;7.276;2023-08-07T05:26:39;16.20;74.40
19947;DHT22;10135;50.702;7.276;2023-08-07T05:28:39;16.30;74.50
19947;DHT22;10135;50.702;7.276;2023-08-07T05:30:40;16.30;74.50
19947;DHT22;10135;50.702;7.276;2023-08-07T05:32:41;16.30;74.50
19947;DHT22;10135;50.702;7.276;2023-08-07T05:34:41;16.30;74.50
19947;DHT22;10135;50.702;7.276;2023-08-07T05:36:42;16.30;74.50
19947;DHT22;10135;50.702;7.276;2023-08-07T05:38:43;16.30;74.50
19947;DHT22;10135;50.702;7.276;2023-08-07T05:40:43;16.30;74.40
19947;DHT22;10135;50.702;7.276;2023-08-07T05:42:44;16.30;74.40
19947;DHT22;10135;50.702;7.276;2023-08-07T05:44:45;16.40;74.40
19947;DHT22;10135;50.702;7.276;2023-08-07T05:46:45;16.40;74.30
19947;DHT22;10135;50.702;7.276;2023-08-07T05:48:46;16.40;74.30
19947;DHT22;10135;50.702;7.276;2023-08-07T05:50:47;16.40;74.30
19947;DHT22;10135;50.702;7.276;2023-08-07T05:52:47;16.40;74.30
19947;DHT22;10135;50.702;7.276;2023-08-07T05:54:48;16.40;74.30
19947;DHT22;10135;50.702;7.276;2023-08-07T05:56:48;16.40;74.30
19947;DHT22;10135;50.702;7.276;2023-08-07T05:58:49;16.40;74.20
19947;DHT22;10135;50.702;7.276;2023-08-07T06:00:50;16.50;74.30
19947;DHT22;10135;50.702;7.276;2023-08-07T06:02:51;16.40;74.20
19947;DHT22;10135;50.702;7.276;2023-08-07T06:04:51;16.50;74.20
19947;DHT22;10135;50.702;7.276;2023-08-07T06:06:53;16.50;74.20
19947;DHT22;10135;50.702;7.276;2023-08-07T06:08:54;16.50;74.20
19947;DHT22;10135;50.702;7.276;2023-08-07T06:10:55;16.50;74.10
19947;DHT22;10135;50.702;7.276;2023-08-07T06:12:56;16.50;74.10
19947;DHT22;10135;50.702;7.276;2023-08-07T06:14:56;16.50;74.00
19947;DHT22;10135;50.702;7.276;2023-08-07T06:16:57;16.60;74.00
19947;DHT22;10135;50.702;7.276;2023-08-07T06:19:02;16.60;74.00
19947;DHT22;10135;50.702;7.276;2023-08-07T06:21:03;16.60;73.90
19947;DHT22;10135;50.702;7.276;2023-08-07T06:23:07;16.60;73.90
19947;DHT22;10135;50.702;7.276;2023-08-07T06:25:08;16.60;73.90
19947;DHT22;10135;50.702;7.276;2023-08-07T06:27:09;16.60;73.90
19947;DHT22;10135;50.702;7.276;2023-08-07T06:29:10;16.70;73.90
19947;DHT22;10135;50.702;7.276;2023-08-07T06:31:12;16.60;73.80
19947;DHT22;10135;50.702;7.276;2023-08-07T06:33:12;16.70;73.90
19947;DHT22;10135;50.702;7.276;2023-08-07T06:35:13;16.70;73.80
19947;DHT22;10135;50.702;7.276;2023-08-07T06:37:14;16.70;73.70
19947;DHT22;10135;50.702;7.276;2023-08-07T06:39:14;16.70;73.70
19947;DHT22;10135;50.702;7.276;2023-08-07T06:41:15;16.70;73.70
19947;DHT22;10135;50.702;7.276;2023-08-07T06:43:16;16.70;73.70
19947;DHT22;10135;50.702;7.276;2023-08-07T06:45:16;16.70;73.70
19947;DHT22;10135;50.702;7.276;2023-08-07T06:47:17;16.70;73.70
19947;DHT22;10135;50.702;7.276;2023-08-07T06:49:18;16.70;73.60
19947;DHT22;10135;50.702;7.276;2023-08-07T06:51:18;16.70;73.60
19947;DHT22;10135;50.702;7.276;2023-08-07T06:53:19;16.70;73.50
19947;DHT22;10135;50.702;7.276;2023-08-07T06:55:20;16.70;73.50
19947;DHT22;10135;50.702;7.276;2023-08-07T06:57:21;16.70;73.60
19947;DHT22;10135;50.702;7.276;2023-08-07T06:59:21;16.70;73.60
19947;DHT22;10135;50.702;7.276;2023-08-07T07:01:22;16.60;73.50
19947;DHT22;10135;50.702;7.276;2023-08-07T07:03:23;16.60;73.50
19947;DHT22;10135;50.702;7.276;2023-08-07T07:05:23;16.60;73.50
19947;DHT22;10135;50.702;7.276;2023-08-07T07:07:24;16.60;73.50
19947;DHT22;10135;50.702;7.276;2023-08-07T07:09:24;16.60;73.50
19947;DHT22;10135;50.702;7.276;2023-08-07T07:11:26;16.60;73.60
19947;DHT22;10135;50.702;7.276;2023-08-07T07:13:27;16.60;73.60
19947;DHT22;10135;50.702;7.276;2023-08-07T07:15:27;16.60;73.60
19947;DHT22;10135;50.702;7.276;2023-08-07T07:17:28;16.50;73.60
19947;DHT22;10135;50.702;7.276;2023-08-07T07:19:28;16.50;73.60
19947;DHT22;10135;50.702;7.276;2023-08-07T07:21:29;16.50;73.60
19947;DHT22;10135;50.702;7.276;2023-08-07T07:23:30;16.50;73.60
19947;DHT22;10135;50.702;7.276;2023-08-07T07:25:31;16.40;73.60
19947;DHT22;10135;50.702;7.276;2023-08-07T07:27:31;16.40;73.70
19947;DHT22;10135;50.702;7.276;2023-08-07T07:29:32;16.40;73.80
19947;DHT22;10135;50.702;7.276;2023-08-07T07:31:32;16.40;73.80
19947;DHT22;10135;50.702;7.276;2023-08-07T07:33:33;16.40;73.80
19947;DHT22;10135;50.702;7.276;2023-08-07T07:35:39;16.30;73.80
19947;DHT22;10135;50.702;7.276;2023-08-07T07:37:40;16.30;73.80
19947;DHT22;10135;50.702;7.276;2023-08-07T07:39:40;16.30;73.80
19947;DHT22;10135;50.702;7.276;2023-08-07T07:41:42;16.30;73.90
19947;DHT22;10135;50.702;7.276;2023-08-07T07:43:43;16.30;74.00
19947;DHT22;10135;50.702;7.276;2023-08-07T07:45:43;16.20;74.00
19947;DHT22;10135;50.702;7.276;2023-08-07T07:47:44;16.30;74.00
19947;DHT22;10135;50.702;7.276;2023-08-07T07:49:46;16.30;74.10
19947;DHT22;10135;50.702;7.276;2023-08-07T07:51:50;16.30;74.20
19947;DHT22;10135;50.702;7.276;2023-08-07T07:53:51;16.20;74.00
19947;DHT22;10135;50.702;7.276;2023-08-07T07:55:51;16.20;74.10
19947;DHT22;10135;50.702;7.276;2023-08-07T07:57:53;16.20;74.20
19947;DHT22;10135;50.702;7.276;2023-08-07T07:59:54;16.20;74.30
19947;DHT22;10135;50.702;7.276;2023-08-07T08:01:55;16.20;74.30
19947;DHT22;10135;50.702;7.276;2023-08-07T08:03:56;16.20;74.30
19947;DHT22;10135;50.702;7.276;2023-08-07T08:05:56;16.20;74.40
19947;DHT22;10135;50.702;7.276;2023-08-07T08:07:57;16.20;74.30
19947;DHT22;10135;50.702;7.276;2023-08-07T08:09:57;16.20;74.30
19947;DHT22;10135;50.702;7.276;2023-08-07T08:11:58;16.20;74.40
19947;DHT22;10135;50.702;7.276;2023-08-07T08:13:59;16.20;74.50
19947;DHT22;10135;50.702;7.276;2023-08-07T08:15:59;16.30;74.50
19947;DHT22;10135;50.702;7.276;2023-08-07T08:18:00;16.20;74.50
19947;DHT22;10135;50.702;7.276;2023-08-07T08:20:01;16.20;74.50
19947;DHT22;10135;50.702;7.276;2023-08-07T08:22:01;16.30;74.50
19947;DHT22;10135;50.702;7.276;2023-08-07T08:24:02;16.30;74.60
19947;DHT22;10135;50.702;7.276;2023-08-07T08:26:03;16.30;74.50
19947;DHT22;10135;50.702;7.276;2023-08-07T08:28:04;16.30;74.60
19947;DHT22;10135;50.702;7.276;2023-08-07T08:30:05;16.30;74.60
19947;DHT22;10135;50.702;7.276;2023-08-07T08:32:06;16.30;74.50
19947;DHT22;10135;50.702;7.276;2023-08-07T08:34:07;16.30;74.50
19947;DHT22;10135;50.702;7.276;2023-08-07T08:36:07;16.30;74.50
19947;DHT22;10135;50.702;7.276;2023-08-07T08:38:08;16.40;74.60
19947;DHT22;10135;50.702;7.276;2023-08-07T08:40:09;16.40;74.60
19947;DHT22;10135;50.702;7.276;2023-08-07T08:42:12;16.40;74.60
19947;DHT22;10135;50.702;7.276;2023-08-07T08:44:15;16.40;74.60
19947;DHT22;10135;50.702;7.276;2023-08-07T08:46:19;16.40;74.70
19947;DHT22;10135;50.702;7.276;2023-08-07T08:48:22;16.50;74.80
19947;DHT22;10135;50.702;7.276;2023-08-07T08:50:24;16.50;74.70
19947;DHT22;10135;50.702;7.276;2023-08-07T08:52:26;16.50;75.40
19947;DHT22;10135;50.702;7.276;2023-08-07T08:54:28;16.50;74.70
19947;DHT22;10135;50.702;7.276;2023-08-07T08:56:33;16.50;74.70
19947;DHT22;10135;50.702;7.276;2023-08-07T08:58:34;16.50;74.80
19947;DHT22;10135;50.702;7.276;2023-08-07T09:00:34;16.50;74.70
19947;DHT22;10135;50.702;7.276;2023-08-07T09:02:36;16.60;74.80
19947;DHT22;10135;50.702;7.276;2023-08-07T09:04:37;16.60;74.80
19947;DHT22;10135;50.702;7.276;2023-08-07T09:06:38;16.60;74.80
19947;DHT22;10135;50.702;7.276;2023-08-07T09:08:43;16.60;74.80
19947;DHT22;10135;50.702;7.276;2023-08-07T09:10:44;16.60;74.80
19947;DHT22;10135;50.702;7.276;2023-08-07T09:12:54;16.70;74.80
19947;DHT22;10135;50.702;7.276;2023-08-07T09:15:02;16.70;74.80
19947;DHT22;10135;50.702;7.276;2023-08-07T09:17:05;16.70;74.70
19947;DHT22;10135;50.702;7.276;2023-08-07T09:19:06;16.70;74.70
19947;DHT22;10135;50.702;7.276;2023-08-07T09:21:07;16.70;74.70
19947;DHT22;10135;50.702;7.276;2023-08-07T09:23:08;16.80;74.80
19947;DHT22;10135;50.702;7.276;2023-08-07T09:25:09;16.80;74.70
19947;DHT22;10135;50.702;7.276;2023-08-07T09:27:10;16.80;74.70
19947;DHT22;10135;50.702;7.276;2023-08-07T09:29:11;16.80;74.70
19947;DHT22;10135;50.702;7.276;2023-08-07T09:31:14;16.80;74.70
19947;DHT22;10135;50.702;7.276;2023-08-07T09:33:15;16.80;74.80
19947;DHT22;10135;50.702;7.276;2023-08-07T09:35:25;16.80;74.80
19947;DHT22;10135;50.702;7.276;2023-08-07T09:37:26;16.90;74.80
19947;DHT22;10135;50.702;7.276;2023-08-07T09:39:27;16.90;74.80
19947;DHT22;10135;50.702;7.276;2023-08-07T09:41:31;16.90;74.70
19947;DHT22;10135;50.702;7.276;2023-08-07T09:43:35;16.90;74.80
19947;DHT22;10135;50.702;7.276;2023-08-07T09:45:40;17.00;74.80
19947;DHT22;10135;50.702;7.276;2023-08-07T09:47:40;17.00;74.80
19947;DHT22;10135;50.702;7.276;2023-08-07T09:49:42;17.00;74.80
19947;DHT22;10135;50.702;7.276;2023-08-07T09:51:47;17.10;74.90
19947;DHT22;10135;50.702;7.276;2023-08-07T09:53:50;17.10;74.80
19947;DHT22;10135;50.702;7.276;2023-08-07T09:55:54;17.10;74.70
19947;DHT22;10135;50.702;7.276;2023-08-07T09:57:55;17.10;74.50
19947;DHT22;10135;50.702;7.276;2023-08-07T09:59:56;17.10;74.50
19947;DHT22;10135;50.702;7.276;2023-08-07T10:01:57;17.20;74.50
19947;DHT22;10135;50.702;7.276;2023-08-07T10:03:58;17.20;74.40
19947;DHT22;10135;50.702;7.276;2023-08-07T10:05:59;17.20;74.40
19947;DHT22;10135;50.702;7.276;2023-08-07T10:08:00;17.30;74.40
19947;DHT22;10135;50.702;7.276;2023-08-07T10:10:02;17.20;74.40
19947;DHT22;10135;50.702;7.276;2023-08-07T10:12:04;17.20;74.30
19947;DHT22;10135;50.702;7.276;2023-08-07T10:14:05;17.20;74.30
19947;DHT22;10135;50.702;7.276;2023-08-07T10:16:07;17.30;74.30
19947;DHT22;10135;50.702;7.276;2023-08-07T10:18:08;17.30;74.30
19947;DHT22;10135;50.702;7.276;2023-08-07T10:20:11;17.30;74.30
19947;DHT22;10135;50.702;7.276;2023-08-07T10:22:12;17.40;74.50
19947;DHT22;10135;50.702;7.276;2023-08-07T10:24:15;17.40;74.50
19947;DHT22;10135;50.702;7.276;2023-08-07T10:26:17;17.40;74.40
19947;DHT22;10135;50.702;7.276;2023-08-07T10:28:19;17.50;74.40
19947;DHT22;10135;50.702;7.276;2023-08-07T10:30:24;17.50;74.30
19947;DHT22;10135;50.702;7.276;2023-08-07T10:32:27;17.50;74.10
19947;DHT22;10135;50.702;7.276;2023-08-07T10:34:33;17.60;74.10
19947;DHT22;10135;50.702;7.276;2023-08-07T10:36:35;17.60;73.90
19947;DHT22;10135;50.702;7.276;2023-08-07T10:38:38;17.60;73.90
19947;DHT22;10135;50.702;7.276;2023-08-07T10:43:13;17.70;73.50
19947;DHT22;10135;50.702;7.276;2023-08-07T10:45:18;17.70;74.40
19947;DHT22;10135;50.702;7.276;2023-08-07T10:47:33;17.70;73.80
19947;DHT22;10135;50.702;7.276;2023-08-07T10:49:41;17.70;73.60
19947;DHT22;10135;50.702;7.276;2023-08-07T10:51:42;17.80;73.70
19947;DHT22;10135;50.702;7.276;2023-08-07T10:53:44;17.80;73.90
19947;DHT22;10135;50.702;7.276;2023-08-07T10:55:48;17.80;74.00
19947;DHT22;10135;50.702;7.276;2023-08-07T10:57:49;17.90;74.00
19947;DHT22;10135;50.702;7.276;2023-08-07T11:01:56;18.00;73.70
19947;DHT22;10135;50.702;7.276;2023-08-07T11:04:05;18.10;73.90
19947;DHT22;10135;50.702;7.276;2023-08-07T11:06:09;18.20;73.70
19947;DHT22;10135;50.702;7.276;2023-08-07T11:08:12;18.20;73.50
19947;DHT22;10135;50.702;7.276;2023-08-07T11:10:13;18.20;73.50
19947;DHT22;10135;50.702;7.276;2023-08-07T11:12:16;18.30;73.40
19947;DHT22;10135;50.702;7.276;2023-08-07T11:14:18;18.40;73.40
19947;DHT22;10135;50.702;7.276;2023-08-07T11:16:19;18.40;73.20
19947;DHT22;10135;50.702;7.276;2023-08-07T11:18:22;18.50;73.30
19947;DHT22;10135;50.702;7.276;2023-08-07T11:20:25;18.60;73.10
19947;DHT22;10135;50.702;7.276;2023-08-07T11:22:26;18.60;73.50
19947;DHT22;10135;50.702;7.276;2023-08-07T11:24:27;18.70;73.10
19947;DHT22;10135;50.702;7.276;2023-08-07T11:26:27;18.70;73.00
19947;DHT22;10135;50.702;7.276;2023-08-07T11:28:29;18.80;72.90
19947;DHT22;10135;50.702;7.276;2023-08-07T11:30:30;18.80;72.80
19947;DHT22;10135;50.702;7.276;2023-08-07T11:32:31;18.90;72.70
19947;DHT22;10135;50.702;7.276;2023-08-07T11:34:32;19.00;72.70
19947;DHT22;10135;50.702;7.276;2023-08-07T11:36:41;19.10;72.60
19947;DHT22;10135;50.702;7.276;2023-08-07T11:38:44;19.10;72.10
19947;DHT22;10135;50.702;7.276;2023-08-07T11:40:45;19.10;72.20
19947;DHT22;10135;50.702;7.276;2023-08-07T11:42:45;19.20;72.20
19947;DHT22;10135;50.702;7.276;2023-08-07T11:44:46;19.20;72.10
19947;DHT22;10135;50.702;7.276;2023-08-07T11:46:46;19.30;72.10
19947;DHT22;10135;50.702;7.276;2023-08-07T11:48:47;19.40;72.00
19947;DHT22;10135;50.702;7.276;2023-08-07T11:50:48;19.50;71.80
19947;DHT22;10135;50.702;7.276;2023-08-07T11:52:49;19.50;71.80
19947;DHT22;10135;50.702;7.276;2023-08-07T11:54:49;19.60;71.80
19947;DHT22;10135;50.702;7.276;2023-08-07T11:56:53;19.70;71.80
19947;DHT22;10135;50.702;7.276;2023-08-07T11:58:53;19.80;71.60
19947;DHT22;10135;50.702;7.276;2023-08-07T12:00:54;19.90;71.40
19947;DHT22;10135;50.702;7.276;2023-08-07T12:02:55;19.90;71.00
19947;DHT22;10135;50.702;7.276;2023-08-07T12:04:58;20.00;70.80
19947;DHT22;10135;50.702;7.276;2023-08-07T12:06:59;20.00;70.10
19947;DHT22;10135;50.702;7.276;2023-08-07T12:09:00;20.10;70.30
19947;DHT22;10135;50.702;7.276;2023-08-07T12:11:07;20.10;70.20
19947;DHT22;10135;50.702;7.276;2023-08-07T12:13:09;20.10;69.40
19947;DHT22;10135;50.702;7.276;2023-08-07T12:15:12;20.10;69.80
19947;DHT22;10135;50.702;7.276;2023-08-07T12:17:13;20.10;69.60
19947;DHT22;10135;50.702;7.276;2023-08-07T12:19:14;20.10;70.20
19947;DHT22;10135;50.702;7.276;2023-08-07T12:21:17;20.10;69.30
19947;DHT22;10135;50.702;7.276;2023-08-07T12:23:24;20.10;69.10
19947;DHT22;10135;50.702;7.276;2023-08-07T12:25:24;20.20;69.20
19947;DHT22;10135;50.702;7.276;2023-08-07T12:27:25;20.20;69.10
19947;DHT22;10135;50.702;7.276;2023-08-07T12:29:26;20.20;69.10
19947;DHT22;10135;50.702;7.276;2023-08-07T12:31:29;20.30;69.00
19947;DHT22;10135;50.702;7.276;2023-08-07T12:33:30;20.40;68.90
19947;DHT22;10135;50.702;7.276;2023-08-07T12:35:31;20.50;68.80
19947;DHT22;10135;50.702;7.276;2023-08-07T12:37:32;20.60;68.60
19947;DHT22;10135;50.702;7.276;2023-08-07T12:39:33;20.60;68.30
19947;DHT22;10135;50.702;7.276;2023-08-07T12:41:33;20.70;68.10
19947;DHT22;10135;50.702;7.276;2023-08-07T12:43:34;20.80;67.90
19947;DHT22;10135;50.702;7.276;2023-08-07T12:45:34;20.90;67.60
19947;DHT22;10135;50.702;7.276;2023-08-07T12:47:35;20.90;67.40
19947;DHT22;10135;50.702;7.276;2023-08-07T12:49:36;21.00;67.30
19947;DHT22;10135;50.702;7.276;2023-08-07T12:51:36;21.10;67.20
19947;DHT22;10135;50.702;7.276;2023-08-07T12:53:37;21.10;66.90
19947;DHT22;10135;50.702;7.276;2023-08-07T12:55:38;21.20;66.70
19947;DHT22;10135;50.702;7.276;2023-08-07T12:57:42;21.20;66.40
19947;DHT22;10135;50.702;7.276;2023-08-07T12:59:43;21.30;65.40
19947;DHT22;10135;50.702;7.276;2023-08-07T13:01:43;21.30;65.90
19947;DHT22;10135;50.702;7.276;2023-08-07T13:03:44;21.30;65.80
19947;DHT22;10135;50.702;7.276;2023-08-07T13:05:45;21.30;65.70
19947;DHT22;10135;50.702;7.276;2023-08-07T13:07:46;21.30;65.50
19947;DHT22;10135;50.702;7.276;2023-08-07T13:09:47;21.30;65.30
19947;DHT22;10135;50.702;7.276;2023-08-07T13:11:48;21.30;65.30
19947;DHT22;10135;50.702;7.276;2023-08-07T13:13:48;21.30;65.30
19947;DHT22;10135;50.702;7.276;2023-08-07T13:15:49;21.40;65.30
19947;DHT22;10135;50.702;7.276;2023-08-07T13:17:49;21.40;65.30
19947;DHT22;10135;50.702;7.276;2023-08-07T13:19:50;21.50;65.10
19947;DHT22;10135;50.702;7.276;2023-08-07T13:21:51;21.50;65.20
19947;DHT22;10135;50.702;7.276;2023-08-07T13:23:51;21.60;65.10
19947;DHT22;10135;50.702;7.276;2023-08-07T13:25:52;21.60;64.90
19947;DHT22;10135;50.702;7.276;2023-08-07T13:27:53;21.70;64.90
19947;DHT22;10135;50.702;7.276;2023-08-07T13:29:53;21.70;64.70
19947;DHT22;10135;50.702;7.276;2023-08-07T13:31:54;21.80;64.40
19947;DHT22;10135;50.702;7.276;2023-08-07T13:33:54;21.80;64.40
19947;DHT22;10135;50.702;7.276;2023-08-07T13:35:55;21.80;64.10
19947;DHT22;10135;50.702;7.276;2023-08-07T13:37:56;21.70;63.90
19947;DHT22;10135;50.702;7.276;2023-08-07T13:39:57;21.70;63.80
19947;DHT22;10135;50.702;7.276;2023-08-07T13:41:58;21.70;63.70
19947;DHT22;10135;50.702;7.276;2023-08-07T13:44:00;21.60;63.60
19947;DHT22;10135;50.702;7.276;2023-08-07T13:46:01;21.60;63.70
19947;DHT22;10135;50.702;7.276;2023-08-07T13:48:01;21.50;63.80
19947;DHT22;10135;50.702;7.276;2023-08-07T13:50:03;21.60;64.00
19947;DHT22;10135;50.702;7.276;2023-08-07T13:52:04;21.60;64.20
19947;DHT22;10135;50.702;7.276;2023-08-07T13:54:05;21.60;64.10
19947;DHT22;10135;50.702;7.276;2023-08-07T13:56:06;21.70;64.30
19947;DHT22;10135;50.702;7.276;2023-08-07T13:58:09;21.70;63.90
19947;DHT22;10135;50.702;7.276;2023-08-07T14:00:10;21.80;64.40
19947;DHT22;10135;50.702;7.276;2023-08-07T14:02:11;21.80;63.50
19947;DHT22;10135;50.702;7.276;2023-08-07T14:04:12;21.80;63.30
19947;DHT22;10135;50.702;7.276;2023-08-07T14:06:14;21.80;63.10
19947;DHT22;10135;50.702;7.276;2023-08-07T14:08:15;21.80;63.00
19947;DHT22;10135;50.702;7.276;2023-08-07T14:10:15;21.70;62.80
19947;DHT22;10135;50.702;7.276;2023-08-07T14:12:16;21.70;62.70
19947;DHT22;10135;50.702;7.276;2023-08-07T14:14:17;21.70;62.70
19947;DHT22;10135;50.702;7.276;2023-08-07T14:16:17;21.70;62.80
19947;DHT22;10135;50.702;7.276;2023-08-07T14:18:18;21.70;62.70
19947;DHT22;10135;50.702;7.276;2023-08-07T14:20:21;21.60;62.60
19947;DHT22;10135;50.702;7.276;2023-08-07T14:22:22;21.60;62.10
19947;DHT22;10135;50.702;7.276;2023-08-07T14:24:23;21.60;62.30
19947;DHT22;10135;50.702;7.276;2023-08-07T14:26:24;21.50;62.20
19947;DHT22;10135;50.702;7.276;2023-08-07T14:28:24;21.50;62.20
19947;DHT22;10135;50.702;7.276;2023-08-07T14:30:27;21.50;62.20
19947;DHT22;10135;50.702;7.276;2023-08-07T14:32:28;21.40;62.10
19947;DHT22;10135;50.702;7.276;2023-08-07T14:34:28;21.40;62.10
19947;DHT22;10135;50.702;7.276;2023-08-07T14:36:29;21.40;62.10
19947;DHT22;10135;50.702;7.276;2023-08-07T14:38:30;21.40;62.10
19947;DHT22;10135;50.702;7.276;2023-08-07T14:40:31;21.30;62.10
19947;DHT22;10135;50.702;7.276;2023-08-07T14:42:32;21.20;62.00
19947;DHT22;10135;50.702;7.276;2023-08-07T14:44:33;21.20;62.10
19947;DHT22;10135;50.702;7.276;2023-08-07T14:46:33;21.20;62.20
19947;DHT22;10135;50.702;7.276;2023-08-07T14:48:34;21.10;62.20
19947;DHT22;10135;50.702;7.276;2023-08-07T14:50:35;21.10;62.40
19947;DHT22;10135;50.702;7.276;2023-08-07T14:52:36;21.10;62.50
19947;DHT22;10135;50.702;7.276;2023-08-07T14:54:37;21.10;62.50
19947;DHT22;10135;50.702;7.276;2023-08-07T14:56:39;21.10;62.50
19947;DHT22;10135;50.702;7.276;2023-08-07T14:58:39;21.10;62.40
19947;DHT22;10135;50.702;7.276;2023-08-07T15:00:40;21.10;62.20
19947;DHT22;10135;50.702;7.276;2023-08-07T15:02:40;21.10;62.20
19947;DHT22;10135;50.702;7.276;2023-08-07T15:04:41;21.00;62.10
19947;DHT22;10135;50.702;7.276;2023-08-07T15:06:42;21.00;62.10
19947;DHT22;10135;50.702;7.276;2023-08-07T15:08:43;21.00;62.10
19947;DHT22;10135;50.702;7.276;2023-08-07T15:10:44;21.00;62.10
19947;DHT22;10135;50.702;7.276;2023-08-07T15:12:44;21.00;62.00
19947;DHT22;10135;50.702;7.276;2023-08-07T15:14:45;21.00;62.00
19947;DHT22;10135;50.702;7.276;2023-08-07T15:16:46;21.00;62.00
19947;DHT22;10135;50.702;7.276;2023-08-07T15:18:47;21.00;61.90
19947;DHT22;10135;50.702;7.276;2023-08-07T15:20:47;21.00;61.70
19947;DHT22;10135;50.702;7.276;2023-08-07T15:22:49;21.00;61.60
19947;DHT22;10135;50.702;7.276;2023-08-07T15:24:50;21.00;61.40
19947;DHT22;10135;50.702;7.276;2023-08-07T15:26:50;21.00;61.30
19947;DHT22;10135;50.702;7.276;2023-08-07T15:28:51;21.00;61.30
19947;DHT22;10135;50.702;7.276;2023-08-07T15:30:51;21.00;61.20
19947;DHT22;10135;50.702;7.276;2023-08-07T15:32:53;21.00;61.10
19947;DHT22;10135;50.702;7.276;2023-08-07T15:34:54;21.10;61.00
19947;DHT22;10135;50.702;7.276;2023-08-07T15:36:54;21.10;60.90
19947;DHT22;10135;50.702;7.276;2023-08-07T15:38:55;21.10;60.90
19947;DHT22;10135;50.702;7.276;2023-08-07T15:40:57;21.10;60.90
19947;DHT22;10135;50.702;7.276;2023-08-07T15:42:57;21.10;60.70
19947;DHT22;10135;50.702;7.276;2023-08-07T15:44:58;21.20;60.70
19947;DHT22;10135;50.702;7.276;2023-08-07T15:46:59;21.20;60.70
19947;DHT22;10135;50.702;7.276;2023-08-07T15:48:59;21.20;60.50
19947;DHT22;10135;50.702;7.276;2023-08-07T15:51:00;21.20;60.50
19947;DHT22;10135;50.702;7.276;2023-08-07T15:53:01;21.20;60.40
19947;DHT22;10135;50.702;7.276;2023-08-07T15:55:02;21.20;61.10
19947;DHT22;10135;50.702;7.276;2023-08-07T15:57:03;21.20;60.30
19947;DHT22;10135;50.702;7.276;2023-08-07T15:59:03;21.30;60.20
19947;DHT22;10135;50.702;7.276;2023-08-07T16:01:05;21.20;60.20
19947;DHT22;10135;50.702;7.276;2023-08-07T16:03:07;21.20;60.20
19947;DHT22;10135;50.702;7.276;2023-08-07T16:05:08;21.20;60.00
19947;DHT22;10135;50.702;7.276;2023-08-07T16:07:09;21.20;60.10
19947;DHT22;10135;50.702;7.276;2023-08-07T16:09:09;21.20;60.10
19947;DHT22;10135;50.702;7.276;2023-08-07T16:11:10;21.20;60.10
19947;DHT22;10135;50.702;7.276;2023-08-07T16:13:11;21.20;60.10
19947;DHT22;10135;50.702;7.276;2023-08-07T16:15:11;21.20;60.10
19947;DHT22;10135;50.702;7.276;2023-08-07T16:17:12;21.20;60.00
19947;DHT22;10135;50.702;7.276;2023-08-07T16:19:13;21.20;60.00
19947;DHT22;10135;50.702;7.276;2023-08-07T16:21:14;21.20;60.10
19947;DHT22;10135;50.702;7.276;2023-08-07T16:23:15;21.30;60.00
19947;DHT22;10135;50.702;7.276;2023-08-07T16:25:16;21.30;59.90
19947;DHT22;10135;50.702;7.276;2023-08-07T16:27:17;21.30;59.80
19947;DHT22;10135;50.702;7.276;2023-08-07T16:29:18;21.40;59.80
19947;DHT22;10135;50.702;7.276;2023-08-07T16:31:18;21.40;59.60
19947;DHT22;10135;50.702;7.276;2023-08-07T16:33:19;21.40;59.50
19947;DHT22;10135;50.702;7.276;2023-08-07T16:35:20;21.40;59.50
19947;DHT22;10135;50.702;7.276;2023-08-07T16:37:20;21.50;59.40
19947;DHT22;10135;50.702;7.276;2023-08-07T16:39:21;21.50;59.30
19947;DHT22;10135;50.702;7.276;2023-08-07T16:41:22;21.50;59.30
19947;DHT22;10135;50.702;7.276;2023-08-07T16:43:23;21.50;59.20
19947;DHT22;10135;50.702;7.276;2023-08-07T16:45:24;21.60;59.10
19947;DHT22;10135;50.702;7.276;2023-08-07T16:47:25;21.60;59.00
19947;DHT22;10135;50.702;7.276;2023-08-07T16:49:26;21.60;58.80
19947;DHT22;10135;50.702;7.276;2023-08-07T16:51:26;21.70;58.80
19947;DHT22;10135;50.702;7.276;2023-08-07T16:53:27;21.70;58.70
19947;DHT22;10135;50.702;7.276;2023-08-07T16:55:28;21.70;58.60
19947;DHT22;10135;50.702;7.276;2023-08-07T16:57:28;21.70;58.50
19947;DHT22;10135;50.702;7.276;2023-08-07T16:59:29;21.70;58.40
19947;DHT22;10135;50.702;7.276;2023-08-07T17:01:30;21.80;58.30
19947;DHT22;10135;50.702;7.276;2023-08-07T17:03:30;21.80;58.30
19947;DHT22;10135;50.702;7.276;2023-08-07T17:05:31;21.80;58.20
19947;DHT22;10135;50.702;7.276;2023-08-07T17:07:33;21.80;58.20
19947;DHT22;10135;50.702;7.276;2023-08-07T17:09:34;21.80;58.00
19947;DHT22;10135;50.702;7.276;2023-08-07T17:11:36;21.80;57.90
19947;DHT22;10135;50.702;7.276;2023-08-07T17:13:36;21.80;57.90
19947;DHT22;10135;50.702;7.276;2023-08-07T17:15:37;21.80;57.80
19947;DHT22;10135;50.702;7.276;2023-08-07T17:17:38;21.70;57.70
19947;DHT22;10135;50.702;7.276;2023-08-07T17:19:38;21.70;57.60
19947;DHT22;10135;50.702;7.276;2023-08-07T17:21:39;21.70;57.50
19947;DHT22;10135;50.702;7.276;2023-08-07T17:23:40;21.60;57.50
19947;DHT22;10135;50.702;7.276;2023-08-07T17:25:41;21.60;57.50
19947;DHT22;10135;50.702;7.276;2023-08-07T17:27:42;21.50;57.40
19947;DHT22;10135;50.702;7.276;2023-08-07T17:29:43;21.50;57.50
19947;DHT22;10135;50.702;7.276;2023-08-07T17:31:43;21.50;57.50
19947;DHT22;10135;50.702;7.276;2023-08-07T17:33:44;21.50;57.50
19947;DHT22;10135;50.702;7.276;2023-08-07T17:35:44;21.50;57.50
19947;DHT22;10135;50.702;7.276;2023-08-07T17:37:45;21.40;57.40
19947;DHT22;10135;50.702;7.276;2023-08-07T17:39:46;21.40;57.40
19947;DHT22;10135;50.702;7.276;2023-08-07T17:41:46;21.40;57.40
19947;DHT22;10135;50.702;7.276;2023-08-07T17:43:48;21.40;57.40
19947;DHT22;10135;50.702;7.276;2023-08-07T17:45:48;21.40;57.40
19947;DHT22;10135;50.702;7.276;2023-08-07T17:47:49;21.30;57.40
19947;DHT22;10135;50.702;7.276;2023-08-07T17:49:50;21.30;57.40